Weather observations for the past three days for
Front Royal-warren County Airport
Metric (Imperial)
Date Time (edt) Wind (kph) Vis. (km) Weather Sky Cond. Temperature (ºC) Relative Humidity Wind Chill (°C) Heat Index (°C) Pressure Precipitation (cm)
Air Dwpt 6 hour altimeter (cm) sea level (mb) 1 hr 3 hr 6 hr
Max. Min.
06 05:35 S 7 16.09 Partly Cloudy SCT095 SCT110 18.5 9 54% 75.57 0.0
06 05:15 S 7 16.09 Overcast SCT050 SCT085 OVC110 18.6 8.7 53% 75.59 0.0
06 04:55 S 6 16.09 Mostly Cloudy SCT100 BKN120 19 8.5 51% 75.59 0.0
06 04:35 SW 7 16.09 Partly Cloudy SCT100 SCT120 18.8 8.1 50% 75.62 0.0
06 04:15 S 9 16.09 Partly Cloudy SCT120 19 8 49% 75.62 0.0
06 03:55 Calm 16.09 Fair CLR 18.5 8 51% 75.62 0.0
06 03:35 Calm 16.09 Fair CLR 19 7.7 48% 75.62 0.0
06 03:15 SW 6 16.09 Fair CLR 19.4 7.6 47% 75.62 0.0
06 02:55 SW 9 16.09 Fair CLR 19.5 7.5 46% 75.62 0.0
06 02:15 SW 9 16.09 Partly Cloudy SCT095 19.5 7.4 46% 75.67 0.0
06 01:55 S 6 16.09 Partly Cloudy SCT095 19.7 7.3 24.5 19.7 45% 75.67 0.0
06 01:35 SW 7 16.09 Partly Cloudy SCT095 20 7.1 43% 75.69 0.0
06 01:15 SW 7 16.09 Fair CLR 20.2 7.1 43% 75.69 0.0
06 00:55 SW 6 16.09 Fair CLR 20.4 7 42% 75.72 0.0
06 00:35 SW 9 16.09 Fair CLR 20.6 6.8 41% 75.72 0.0
06 00:15 SW 7 16.09 Fair CLR 20.5 6.7 41% 75.72 0.0
05 23:55 SW 9 16.09 Fair CLR 21.1 6.5 39% 75.72 0.0
05 23:35 SW 6 16.09 Fair CLR 21.2 6.3 38% 75.72 0.0
05 23:15 SW 6 16.09 Fair CLR 21.1 6.2 38% 75.72 0.0
05 22:55 SW 7 16.09 Fair CLR 21.5 6.2 37% 75.74 0.0
05 22:35 SW 7 16.09 Fair CLR 21.8 5.9 36% 75.74 0.0
05 22:15 SW 9 16.09 Fair CLR 22.1 5.6 34% 75.74 0.0
05 21:55 SW 7 16.09 Fair CLR 22.2 5.2 33% 75.72 0.0
05 21:35 SW 9 16.09 Fair CLR 22.6 4.7 31% 75.72 0.0
05 21:15 S 7 16.09 Fair CLR 23 4.2 29% 75.69 0.0
05 20:55 S 13 16.09 Fair CLR 23.2 4 29% 75.69 0.0
05 20:35 S 9 16.09 Fair CLR 23.7 3.8 27% 75.67 0.0
05 20:15 S 15 16.09 Fair CLR 24.2 3.8 27% 25 75.64 0.0
05 19:55 S 13 16.09 Fair CLR 24.6 4.2 27.7 24.5 27% 25 75.64 0.0
05 19:35 S 11 16.09 Fair CLR 24.9 4.9 28% 25 75.62 0.0
05 19:15 S 13 16.09 Fair CLR 25.1 4.9 27% 25 75.62 0.0
05 18:55 SW 15 G 31 16.09 Fair CLR 26.1 6 28% 26 75.64 0.0
05 18:35 S 15 16.09 Fair CLR 26.6 6.8 28% 26 75.64 0.0
05 18:15 S 11 16.09 Fair CLR 26.2 5.9 27% 26 75.64 0.0
05 17:55 S 15 G 26 16.09 Fair CLR 26.8 5.6 26% 26 75.62 0.0
05 17:35 S 22 G 31 16.09 Fair CLR 26.6 4.1 24% 26 75.62 0.0
05 17:15 SW 20 G 41 16.09 Fair CLR 26.7 2.7 21% 26 75.62 0.0
05 16:55 SW 13 G 33 16.09 Fair CLR 27 3.1 21% 26 75.62 0.0
05 16:35 S 13 G 31 16.09 Fair CLR 27.3 3.7 22% 26 75.62 0.0
05 16:15 S 19 G 39 16.09 Fair CLR 27.3 4.1 23% 26 75.64 0.0
05 15:55 S 19 G 37 16.09 Fair CLR 27.4 4.2 23% 26 75.64 0.0
05 15:35 SW 20 G 43 16.09 Fair CLR 27.5 4.3 23% 26 75.64 0.0
05 15:15 S 22 G 37 16.09 Fair CLR 27.6 4.9 23% 27 75.67 0.0
05 14:55 S 22 G 43 16.09 Fair CLR 27.5 5.9 25% 27 75.69 0.0
05 14:35 S 17 G 33 16.09 Fair CLR 27.5 7 27% 27 75.72 0.0
05 14:15 S 19 G 39 16.09 Fair CLR 27.2 7.1 28% 26 75.72 0.0
05 13:55 S 17 G 30 16.09 Fair CLR 27.4 8.2 27.4 17.9 30% 27 75.74 0.0
05 13:35 SW 13 G 35 16.09 Fair CLR 27 8.9 32% 26 75.77 0.0
05 13:15 S 15 G 30 16.09 Fair CLR 26.5 8.8 33% 26 75.77 0.0
05 12:55 S 15 G 31 16.09 Fair CLR 26.4 9.3 34% 26 75.79 0.0
05 12:35 SW 15 G 30 16.09 Fair CLR 26.1 9.1 34% 26 75.82 0.0
05 12:15 S 13 G 33 16.09 Fair CLR 26.2 9.8 36% 26 75.84 0.0
05 11:55 S 11 G 28 16.09 Fair CLR 25.3 9.4 37% 26 75.84 0.0
05 11:35 S 13 16.09 Fair CLR 25 8.8 36% 26 75.87 0.0
05 11:15 S 13 16.09 Fair CLR 25 9.5 38% 26 75.87 0.0
05 10:55 S 13 16.09 Fair CLR 24.4 9.3 38% 25 75.87 0.0
05 10:35 S 15 G 26 16.09 Fair CLR 24 9.3 39% 25 75.84 0.0
05 10:15 S 11 16.09 Fair CLR 23.5 9.6 41% 75.84 0.0
05 09:55 SW 9 16.09 Fair CLR 22.7 9.5 43% 75.87 0.0
05 09:35 SW 9 16.09 Fair CLR 21.7 9.1 45% 75.87 0.0
05 09:15 S 7 16.09 Fair CLR 21.1 9.1 46% 75.87 0.0
05 08:55 S 7 16.09 Fair CLR 20.1 9.1 49% 75.9 0.0
05 08:35 SE 7 16.09 Fair CLR 19.2 8.8 51% 75.92 0.0
05 08:15 SE 6 16.09 Fair CLR 18.4 8.5 53% 75.92 0.0
05 07:55 SE 6 16.09 Fair CLR 17.7 8.4 18 15.9 55% 75.9 0.0
05 07:35 Calm 16.09 Fair CLR 16.2 7.8 58% 75.9 0.0
05 07:15 S 6 16.09 Fair CLR 17.1 7.2 52% 75.87 0.0
05 06:55 S 9 16.09 Fair CLR 17.6 6.7 49% 75.84 0.0
05 06:35 SW 9 16.09 Fair CLR 17.6 6.8 49% 75.82 0.0
05 06:15 S 9 16.09 Fair CLR 17.6 6.9 50% 75.82 0.0
05 05:55 SW 11 16.09 Fair CLR 18 6.8 48% 75.79 0.0
05 05:35 SW 13 16.09 Fair CLR 17.8 7.1 50% 75.79 0.0
05 05:15 SW 15 16.09 Fair CLR 17.6 7.4 51% 75.79 0.0
05 04:55 SW 11 16.09 Fair CLR 17.5 7.5 52% 75.79 0.0
05 04:35 SW 13 16.09 Fair CLR 17.4 7.7 53% 75.79 0.0
05 04:15 SW 13 16.09 Fair CLR 17.4 8 54% 75.79 0.0
05 03:55 SW 13 16.09 Fair CLR 17.5 8.1 54% 75.77 0.0
05 03:35 SW 7 16.09 Fair CLR 16.9 8.3 57% 75.77 0.0
05 03:15 SW 9 16.09 Fair CLR 17 8.5 58% 75.77 0.0
05 02:55 SW 9 16.09 Fair CLR 17.4 8.5 56% 75.77 0.0
05 02:35 SW 11 16.09 Fair CLR 17.2 8.7 58% 75.79 0.0
05 02:15 SW 9 16.09 Fair CLR 16.6 8.8 60% 75.79 0.0
05 01:55 S 7 16.09 Fair CLR 15.7 9 20.5 14.3 65% 75.79 0.0
05 01:35 Calm 16.09 Fair CLR 15.4 9.1 66% 75.77 0.0
05 01:15 S 7 16.09 Fair CLR 14.5 9.5 72% 75.77 0.0
05 00:55 S 6 16.09 Fair CLR 14.5 9.6 73% 75.79 0.0
05 00:35 S 6 16.09 Fair CLR 14.8 9.5 71% 75.79 0.0
05 00:15 Calm 16.09 Fair CLR 16.2 9.4 64% 75.77 0.0
04 23:55 Calm 16.09 Fair CLR 16.6 9.5 63% 75.79 0.0
04 23:35 S 6 16.09 Fair CLR 17.1 9.5 61% 75.79 0.0
04 23:15 S 13 16.09 Fair CLR 17.2 9.6 61% 75.79 0.0
04 22:55 S 7 16.09 Fair CLR 16.5 9.7 64% 75.79 0.0
04 22:35 S 6 16.09 Fair CLR 16.8 9.7 63% 75.79 0.0
04 22:15 SW 7 16.09 Fair CLR 17.8 9.6 59% 75.79 0.0
04 21:55 SW 9 16.09 Fair CLR 18.2 9.7 58% 75.79 0.0
04 21:35 S 11 16.09 Fair CLR 18.6 9.7 56% 75.79 0.0
04 21:15 SW 9 16.09 Partly Cloudy SCT120 19 9.6 55% 75.77 0.0
04 20:55 SW 7 16.09 Partly Cloudy SCT120 19.3 9.5 53% 75.72 0.0
04 20:35 SW 9 16.09 Partly Cloudy SCT050 SCT110 19.3 9.5 53% 75.72 0.0
04 20:15 SW 6 16.09 Mostly Cloudy SCT050 SCT065 BKN110 20.2 9.2 49% 75.69 0.0
04 19:55 SW 9 16.09 Partly Cloudy SCT100 SCT120 20.5 8.8 24.7 20.5 47% 75.69 0.0
04 19:35 SW 9 16.09 Overcast SCT060 SCT075 OVC100 21.3 8.5 44% 75.69 0.0
04 19:15 S 15 16.09 Mostly Cloudy SCT060 BKN070 BKN100 21.7 8.2 42% 75.69 0.0
04 18:55 S 19 G 28 16.09 Overcast SCT033 SCT055 OVC090 22.8 7.1 36% 75.69 0.0
04 18:35 SW 13 16.09 Overcast OVC090 23 7.2 36% 75.67 0.0
04 18:15 S 11 16.09 Mostly Cloudy BKN090 23.3 7.3 36% 75.67 0.0
04 17:55 S 15 16.09 Fair CLR 24.3 7.7 35% 25 75.64 0.0
04 17:35 SW 11 G 28 16.09 Partly Cloudy SCT100 24.2 7.9 35% 25 75.64 0.0
04 17:15 S 11 G 30 16.09 Fair CLR 22.9 6.9 36% 75.64 0.0
04 16:55 S 15 16.09 Partly Cloudy SCT090 24.3 7.3 34% 25 75.64 0.0
04 16:35 SW 13 G 26 16.09 Partly Cloudy SCT090 24 6.9 33% 25 75.67 0.0
04 16:15 SW 13 16.09 Partly Cloudy SCT090 23.5 6.6 34% 75.67 0.0
04 15:55 SW 7 16.09 Partly Cloudy SCT090 23.4 6.4 34% 75.67 0.0
04 15:35 S 13 G 26 16.09 Partly Cloudy SCT090 24 6 31% 25 75.72 0.0
04 15:15 S 15 16.09 Partly Cloudy SCT090 24.4 6.5 32% 25 75.72 0.0
04 14:55 SE 7 G 30 16.09 Partly Cloudy SCT080 24 6 31% 25 75.74 0.0
04 14:35 S 15 16.09 Partly Cloudy SCT090 24.1 6.4 32% 25 75.77 0.0
04 14:15 S 15 16.09 Partly Cloudy SCT080 23.4 6 33% 75.79 0.0
04 13:55 S 15 16.09 Partly Cloudy SCT080 23.5 6.4 23.5 10.7 33% 75.82 0.0
04 13:35 SW 6 16.09 Partly Cloudy SCT080 22.4 5.9 34% 75.84 0.0
04 13:15 SW 11 16.09 Partly Cloudy SCT080 22.3 5.6 34% 75.87 0.0
04 12:55 S 19 16.09 Fair CLR 22.5 6.4 35% 75.9 0.0
04 12:35 SW 7 16.09 Fair CLR 21.3 5.5 36% 75.92 0.0
04 12:15 S 11 16.09 Fair CLR 21.1 5.6 37% 75.95 0.0
04 11:55 S 11 16.09 Fair CLR 20.6 5 36% 75.95 0.0
04 11:35 S 11 16.09 Fair CLR 20.1 5.6 39% 75.97 0.0
04 11:15 S 15 16.09 Fair CLR 19.3 5 39% 75.97 0.0
04 10:55 S 11 16.09 Fair CLR 18.6 4.9 41% 76 0.0
04 10:35 SW 13 16.09 Fair CLR 17.6 4.3 42% 76 0.0
04 10:15 SW 17 16.09 Fair CLR 17.3 4.2 42% 76 0.0
04 09:55 SW 13 16.09 Fair CLR 16.3 3.7 43% 76.02 0.0
04 09:35 SW 11 16.09 Fair CLR 15.1 3 44% 76.05 0.0
04 09:15 S 11 16.09 Fair CLR 14.8 2.9 45% 76.02 0.0
04 08:55 S 13 G 26 16.09 Partly Cloudy SCT120 13.6 2.2 46% 76.05 0.0
04 08:35 S 13 16.09 Mostly Cloudy BKN120 12.7 2.7 51% 76.05 0.0
04 08:15 S 7 16.09 Partly Cloudy SCT120 11.5 2.6 55% 76.07 0.0
04 07:55 S 9 16.09 Partly Cloudy SCT120 10.4 2.1 10.4 7.1 57% 76.07 0.0
04 07:35 S 7 16.09 Partly Cloudy SCT095 8.9 2 62% 8 76.07 0.0
04 07:15 S 9 16.09 Overcast OVC095 8.6 2.2 64% 7 76.07 0.0
04 06:55 S 7 16.09 Overcast OVC095 8.3 2.2 66% 7 76.1 0.0
04 06:35 S 6 16.09 Overcast OVC085 7.7 2.3 69% 76.07 0.0
04 06:15 S 6 16.09 Overcast OVC085 7.7 2.4 69% 76.07 0.0
04 05:55 SE 6 16.09 Overcast OVC095 7.6 2.5 70% 76.1 0.0
04 05:35 S 6 16.09 Overcast BKN095 OVC110 7.3 2.2 70% 76.1 0.0
04 05:15 S 6 16.09 Overcast SCT090 OVC110 7.4 2 69% 76.1 0.0
04 04:55 Calm 16.09 Mostly Cloudy BKN090 BKN110 7.6 2 68% 76.1 0.0
04 04:35 S 7 16.09 Overcast OVC090 8.1 1.6 64% 7 76.1 0.0
04 04:15 S 6 16.09 Overcast OVC090 8.1 2 66% 76.1 0.0
04 03:55 S 7 16.09 Overcast OVC090 8 2.2 67% 7 76.1 0.0
04 03:35 S 6 16.09 Overcast OVC090 7.9 2.1 67% 76.1 0.0
04 03:15 S 7 16.09 Overcast OVC090 7.9 2 67% 7 76.12 0.0
04 02:55 Calm 16.09 Overcast OVC090 7.6 2 68% 76.12 0.0
04 02:35 Calm 16.09 Overcast OVC100 7.6 1.9 67% 76.12 0.0
04 02:15 Calm 16.09 Overcast OVC100 7.5 2.1 69% 76.12 0.0
04 01:55 Calm 16.09 Overcast OVC100 7.2 2.9 13.8 5.5 74% 76.12 0.0
04 01:35 Calm 16.09 Overcast OVC100 6.9 2.5 74% 76.15 0.0
04 01:15 Calm 16.09 Overcast OVC110 6.7 2.7 76% 76.15 0.0
04 00:55 Calm 16.09 Overcast OVC110 7.2 1.6 68% 76.15 0.0
04 00:35 S 6 16.09 Overcast OVC110 6.3 2.4 76% 76.15 0.0
04 00:15 Calm 16.09 Mostly Cloudy BKN120 5.7 1 72% 76.17 0.0
03 23:55 Calm 16.09 Fair CLR 5.5 0.8 72% 76.15 0.0
03 23:35 S 7 16.09 Fair CLR 7.1 0.2 62% 6 76.15 0.0
03 23:15 Calm 16.09 Fair CLR 7.5 0.3 61% 76.12 0.0
03 22:55 S 6 16.09 Fair CLR 8.5 0 55% 76.15 0.0
03 22:35 S 6 16.09 Fair CLR 8.8 0 54% 76.12 0.0
03 22:15 SW 9 16.09 Fair CLR 9.4 0 52% 8 76.12 0.0
03 21:55 S 7 16.09 Fair CLR 8.3 0.6 59% 7 76.1 0.0
03 21:35 Calm 16.09 Fair CLR 8.6 0 55% 76.07 0.0
03 21:15 Calm 16.09 Fair CLR 9.8 0 51% 76.07 0.0
03 20:55 Calm 16.09 Fair CLR 10.3 -1.5 44% 76.05 0.0
03 20:35 Calm 16.09 Fair CLR 12.6 -2.2 36% 76.05 0.0
03 20:15 Calm 16.09 Fair CLR 13.3 -2.4 34% 76.05 0.0
03 19:55 W 7 16.09 Fair CLR 14.1 -1.9 17.1 14.1 33% 76.05 0.0
03 19:35 W 6 16.09 Fair CLR 15 -1.9 31% 76.05 0.0
03 19:15 W 9 16.09 Fair CLR 15.7 -2.4 29% 76.05 0.0
03 18:55 W 7 16.09 Fair CLR 16.1 -3.4 26% 76.02 0.0
03 18:35 NW 9 16.09 Fair CLR 16.5 -2.6 27% 76.02 0.0
03 18:15 NW 11 16.09 Fair CLR 16.8 -3.3 25% 76.05 0.0
03 17:55 NW 6 G 28 16.09 Fair CLR 16.7 -3.8 24% 76.05 0.0
03 17:35 NW 11 16.09 Fair CLR 16.9 -3.6 25% 76.05 0.0
03 17:15 W 19 16.09 Fair CLR 17 -2.9 26% 76.05 0.0
03 16:55 W 13 16.09 Fair CLR 16.9 -2.9 26% 76.05 0.0
03 16:35 W 9 16.09 Fair CLR 16.6 -2.6 27% 76.05 0.0
03 16:15 Calm 16.09 Fair CLR 16.1 -4.1 25% 76.07 0.0
03 15:55 Calm 16.09 Fair CLR 15.8 -3.9 26% 76.1 0.0
03 15:35 W 9 16.09 Fair CLR 15.9 -3.1 27% 76.12 0.0
03 15:15 W 15 G 28 16.09 Fair CLR 16.1 -3.1 27% 76.15 0.0
03 14:55 N 15 16.09 Partly Cloudy SCT075 15.5 -3 28% 76.17 0.0
03 14:35 W 20 G 26 16.09 Partly Cloudy SCT075 15.6 -1.7 31% 76.17 0.0
03 14:15 W 20 G 28 16.09 Mostly Cloudy BKN075 15.2 -1.7 32% 76.17 0.0
03 13:55 W 19 G 30 16.09 Partly Cloudy SCT075 14.8 -3.1 14.8 7.1 29% 76.2 0.0
03 13:35 NW 19 G 35 16.09 Partly Cloudy SCT075 14.7 -2 32% 76.23 0.0
03 13:15 NW 11 G 35 16.09 Fair CLR 13.9 -2.1 33% 76.23 0.0
03 12:55 NW 22 G 33 16.09 Partly Cloudy SCT065 13.7 -1.9 34% 76.25 0.0
03 12:35 Calm 16.09 Partly Cloudy SCT065 13.2 -2 35% 76.25 0.0
03 12:15 N 13 16.09 Partly Cloudy SCT065 12.8 -2.5 35% 76.25 0.0
03 11:55 NW 11 16.09 Partly Cloudy SCT065 11.7 -3.4 35% 76.28 0.0
03 11:35 W 20 G 28 16.09 Fair CLR 12.7 -1.6 37% 76.3 0.0
03 11:15 N 9 G 26 16.09 Partly Cloudy SCT060 11.3 -3.1 37% 76.3 0.0
03 10:55 W 11 16.09 Mostly Cloudy BKN060 11.9 -1.5 40% 76.3 0.0
03 10:35 NW 11 16.09 Mostly Cloudy BKN060 10.7 -3.6 37% 76.3 0.0
03 10:15 NW 19 G 33 16.09 Partly Cloudy SCT050 9.7 -3.3 40% 7 76.3 0.0
03 09:55 NW 15 G 28 16.09 Partly Cloudy SCT050 8.8 -2.9 44% 7 76.3 0.0
03 09:35 W 15 16.09 Partly Cloudy SCT050 8.3 -2.7 46% 6 76.33 0.0
03 09:15 W 17 G 30 16.09 Partly Cloudy SCT050 8.6 -2.4 46% 6 76.33 0.0
03 08:55 NW 11 16.09 Partly Cloudy SCT050 8.2 -2.1 49% 7 76.33 0.0
03 08:35 W 6 16.09 Fair CLR 8 -2 50% 76.33 0.0
03 08:15 W 13 16.09 Fair CLR 7.5 -1.6 53% 5 76.3 0.0
03 07:55 Calm 16.09 Fair CLR 6.9 -1.7 6.9 3.6 55% 76.3 0.0
03 07:35 Calm 16.09 Fair CLR 6.3 -1.9 56% 76.28 0.0
03 07:15 Calm 16.09 Fair CLR 5.4 -0.9 64% 76.25 0.0
03 06:55 Calm 16.09 Fair CLR 4.5 -1.3 66% 76.23 0.0
03 06:35 Calm 16.09 Fair CLR 3.9 -1.1 70% 76.2 0.0
03 06:15 W 7 16.09 Fair CLR 4.1 -1.2 69% 3 76.17 0.0
03 05:55 W 6 16.09 Partly Cloudy SCT040 4.1 -1.2 69% 76.17 0.0
03 05:35 NW 6 16.09 Mostly Cloudy SCT040 BKN070 4.7 -1.1 66% 76.17 0.0
Date Time (edt) Wind (kph) Vis. (km) Weather Sky Cond. Air Dwpt Max. Min. Relative Humidity Wind Chill (°C) Heat Index (°C) altimeter (cm) sea level (mb) 1 hr 3 hr 6 hr
6 hour
Temperature (ºC) Pressure Precipitation (cm)